Time;durP1;ratioP1;P1;durP2;ratioP2;P2;SDS_P1;SDS_P2;PMS_P1;PMS_P2;Temp;Humidity;BMP_temperature;BMP_pressure;BME280_temperature;BME280_humidity;BME280_pressure;Samples;Min_cycle;Max_cycle;Signal;HPM_P1;HPM_P2
2022/03/01 00:00:47;;;;;;;29.90;15.77;;;;;;;6.37;50.19;101903.44;5134909;27;20220;-64
2022/03/01 00:03:16;;;;;;;28.43;16.17;;;;;;;6.28;50.13;101907.44;5135513;27;20260;-63
2022/03/01 00:05:44;;;;;;;28.93;15.47;;;;;;;5.35;52.86;101911.59;5135428;27;20219;-63
2022/03/01 00:08:13;;;;;;;28.23;15.00;;;;;;;5.09;53.69;101907.69;5122040;27;20633;-63
2022/03/01 00:10:51;;;;;;;25.47;14.53;;;;;;;4.98;54.09;101922.28;5113045;27;20218;-63
2022/03/01 00:13:19;;;;;;;25.47;15.07;;;;;;;5.84;51.79;101917.75;5115289;27;20206;-63
2022/03/01 00:15:52;;;;;;;25.10;14.23;;;;;;;5.44;52.05;101915.53;5117882;27;20569;-63
2022/03/01 00:18:27;;;;;;;30.63;15.30;;;;;;;5.41;52.43;101920.94;5116236;27;20237;-63
2022/03/01 00:20:59;;;;;;;30.20;15.80;;;;;;;5.92;51.37;101925.25;5118430;27;20209;-63
2022/03/01 00:23:28;;;;;;;30.37;15.10;;;;;;;5.45;53.06;101927.75;5112796;27;20306;-61
2022/03/01 00:25:56;;;;;;;25.47;13.97;;;;;;;5.14;53.43;101931.97;5118991;27;20236;-62
2022/03/01 00:28:24;;;;;;;28.67;15.20;;;;;;;5.46;52.90;101926.81;5114411;27;20240;-63
2022/03/01 00:30:51;;;;;;;27.43;14.97;;;;;;;5.34;52.72;101930.94;5116553;27;20217;-63
2022/03/01 00:33:19;;;;;;;26.33;13.50;;;;;;;5.48;52.36;101932.84;5119870;27;20227;-63
2022/03/01 00:36:02;;;;;;;25.67;14.83;;;;;;;5.40;52.35;101932.41;5118624;27;20299;-63
2022/03/01 00:38:31;;;;;;;22.67;13.80;;;;;;;5.77;52.05;101936.59;5112877;27;20623;-61
2022/03/01 00:40:59;;;;;;;24.27;13.83;;;;;;;5.81;51.70;101944.22;5114636;27;20219;-62
2022/03/01 00:43:27;;;;;;;26.73;14.60;;;;;;;5.67;51.63;101941.47;5115057;27;20237;-63
2022/03/01 00:45:55;;;;;;;29.97;14.80;;;;;;;5.88;50.97;101944.81;5119574;27;20300;-61
2022/03/01 00:48:23;;;;;;;25.83;12.80;;;;;;;5.95;50.73;101940.91;5118204;27;20236;-61
2022/03/01 00:50:51;;;;;;;26.17;14.00;;;;;;;5.79;51.09;101951.38;5120535;27;20216;-63
2022/03/01 00:53:20;;;;;;;26.77;14.57;;;;;;;5.99;50.75;101953.81;5111210;27;20216;-62
2022/03/01 00:55:49;;;;;;;25.83;14.37;;;;;;;5.67;50.92;101952.88;5112523;27;20216;-62
2022/03/01 00:58:17;;;;;;;25.20;14.67;;;;;;;5.68;51.26;101953.72;5120030;27;20693;-61
2022/03/01 01:00:45;;;;;;;25.40;14.77;;;;;;;5.85;50.87;101953.66;5120508;27;20236;-63
2022/03/01 01:03:13;;;;;;;26.83;14.77;;;;;;;5.81;50.42;101951.25;5116250;27;20205;-63
2022/03/01 01:05:54;;;;;;;24.03;13.53;;;;;;;5.79;50.74;101955.78;5115427;27;20285;-62
2022/03/01 01:08:35;;;;;;;;;;;;;;;;;;;;;
2022/03/01 01:11:09;;;;;;;27.50;14.53;;;;;;;5.91;50.72;101952.50;5135121;27;20303;-62
2022/03/01 01:13:37;;;;;;;27.17;15.00;;;;;;;5.73;51.31;101948.19;5133098;27;20553;-62
2022/03/01 01:16:16;;;;;;;25.60;14.47;;;;;;;5.65;51.28;101946.81;5141462;27;20223;-62
2022/03/01 01:18:55;;;;;;;26.23;14.40;;;;;;;5.89;51.35;101949.97;5133538;27;20222;-62
2022/03/01 01:21:23;;;;;;;28.93;15.13;;;;;;;5.45;51.94;101941.78;5136974;27;20220;-63
2022/03/01 01:23:51;;;;;;;32.27;15.93;;;;;;;5.22;53.27;101939.44;5133328;27;20522;-63
2022/03/01 01:26:20;;;;;;;27.97;14.77;;;;;;;5.52;51.92;101948.41;5135313;27;20298;-62
2022/03/01 01:28:47;;;;;;;27.57;14.67;;;;;;;4.81;53.73;101952.91;5133718;27;20753;-63
2022/03/01 01:31:15;;;;;;;27.90;14.27;;;;;;;4.72;54.92;101955.13;5137007;27;20705;-62
2022/03/01 01:33:43;;;;;;;28.97;14.60;;;;;;;4.81;54.19;101952.91;5143326;27;20298;-62
2022/03/01 01:36:10;;;;;;;26.33;14.53;;;;;;;4.45;54.75;101952.03;5146515;27;20220;-62
2022/03/01 01:38:38;;;;;;;26.20;13.10;;;;;;;4.38;55.40;101956.75;5143061;27;20539;-64
2022/03/01 01:41:06;;;;;;;25.03;14.33;;;;;;;4.52;54.93;101962.19;5139598;27;20220;-63
2022/03/01 01:43:35;;;;;;;25.60;13.77;;;;;;;4.87;54.02;101957.00;5145529;27;20577;-63
2022/03/01 01:46:03;;;;;;;23.10;13.23;;;;;;;4.63;54.54;101960.81;5138346;27;20207;-62
2022/03/01 01:48:30;;;;;;;24.80;14.03;;;;;;;5.20;53.17;101962.34;5145287;27;20290;-62
2022/03/01 01:50:58;;;;;;;27.73;13.77;;;;;;;5.20;52.98;101952.69;5148753;27;20313;-62
2022/03/01 01:53:26;;;;;;;27.70;14.57;;;;;;;5.25;52.53;101949.81;5138884;27;20293;-64
2022/03/01 01:55:54;;;;;;;26.33;14.37;;;;;;;5.32;52.56;101947.72;5136823;27;20587;-62
2022/03/01 01:58:22;;;;;;;26.37;13.97;;;;;;;5.40;52.13;101949.03;5139276;27;20215;-63
2022/03/01 02:00:52;;;;;;;24.20;14.00;;;;;;;5.38;52.91;101947.41;5144002;27;20214;-63
2022/03/01 02:03:20;;;;;;;25.20;14.13;;;;;;;5.37;53.14;101954.44;5144393;27;20214;-63
2022/03/01 02:05:48;;;;;;;24.87;13.40;;;;;;;5.44;52.97;101949.75;5147460;27;20256;-62
2022/03/01 02:08:16;;;;;;;26.30;14.67;;;;;;;5.21;53.34;101954.38;5145014;27;20326;-63
2022/03/01 02:10:43;;;;;;;24.77;14.37;;;;;;;5.22;53.76;101955.22;5146712;27;20242;-62
2022/03/01 02:13:11;;;;;;;29.40;14.93;;;;;;;5.34;53.07;101944.09;5143089;27;20597;-63
2022/03/01 02:15:39;;;;;;;28.20;13.90;;;;;;;4.84;53.48;101949.25;5142058;27;20218;-63
2022/03/01 02:18:08;;;;;;;28.40;15.30;;;;;;;4.41;55.22;101950.47;5141444;27;20217;-63
2022/03/01 02:20:37;;;;;;;24.37;13.63;;;;;;;4.65;55.07;101954.59;5145915;27;20323;-63
2022/03/01 02:23:05;;;;;;;27.97;13.23;;;;;;;4.80;54.06;101947.72;5141300;27;20310;-63
2022/03/01 02:25:33;;;;;;;25.93;13.67;;;;;;;5.01;53.30;101943.19;5144024;27;20223;-63
2022/03/01 02:28:00;;;;;;;23.60;13.27;;;;;;;4.56;54.99;101947.13;5140497;27;20675;-63
2022/03/01 02:30:31;;;;;;;23.67;12.60;;;;;;;4.80;54.44;101945.94;5139472;27;20725;-63
2022/03/01 02:32:59;;;;;;;22.80;13.43;;;;;;;4.42;55.24;101957.44;5147212;27;20302;-63
2022/03/01 02:35:29;;;;;;;23.83;13.03;;;;;;;4.38;55.48;101955.91;5145040;27;20215;-63
2022/03/01 02:37:59;;;;;;;26.03;13.63;;;;;;;4.39;54.99;101957.59;5138541;27;20720;-62
2022/03/01 02:40:26;;;;;;;24.13;13.00;;;;;;;4.14;55.77;101950.00;5145667;27;20580;-62
2022/03/01 02:42:54;;;;;;;23.33;13.47;;;;;;;3.81;57.11;101951.53;5140889;27;20783;-62
2022/03/01 02:45:25;;;;;;;24.53;13.63;;;;;;;3.89;56.85;101952.88;5138650;27;20241;-66
2022/03/01 02:47:53;;;;;;;24.80;13.67;;;;;;;3.71;57.07;101951.09;5142379;27;20377;-67
2022/03/01 02:50:20;;;;;;;24.67;13.77;;;;;;;3.61;57.37;101948.03;5143011;27;20746;-66
2022/03/01 02:52:48;;;;;;;26.90;13.60;;;;;;;3.76;57.15;101942.13;5140127;27;20297;-67
2022/03/01 02:55:18;;;;;;;25.07;13.53;;;;;;;4.37;55.55;101948.94;5141439;27;20299;-66
2022/03/01 02:57:45;;;;;;;25.80;13.30;;;;;;;4.41;54.68;101945.22;5139306;27;20233;-66
2022/03/01 03:00:14;;;;;;;21.63;12.23;;;;;;;4.26;55.26;101949.44;5138350;27;20326;-67
2022/03/01 03:02:42;;;;;;;26.77;12.70;;;;;;;3.62;56.85;101954.97;5138000;27;20202;-66
2022/03/01 03:05:11;;;;;;;26.23;13.97;;;;;;;3.53;57.46;101949.28;5137775;27;20263;-67
2022/03/01 03:07:43;;;;;;;23.50;12.63;;;;;;;4.13;55.83;101948.31;5136806;27;20333;-66
2022/03/01 03:10:11;;;;;;;22.23;12.57;;;;;;;4.39;55.06;101947.94;5134350;27;20296;-66
2022/03/01 03:12:41;;;;;;;24.70;12.23;;;;;;;4.47;54.03;101940.56;5135611;27;20849;-67
2022/03/01 03:15:10;;;;;;;23.70;12.63;;;;;;;4.71;53.30;101940.28;5138644;27;20208;-65
2022/03/01 03:17:37;;;;;;;21.87;12.20;;;;;;;4.66;53.35;101935.22;5134216;27;20289;-65
2022/03/01 03:20:06;;;;;;;24.37;11.97;;;;;;;4.29;54.77;101935.31;5138452;27;20217;-66
2022/03/01 03:22:34;;;;;;;23.33;11.57;;;;;;;3.99;54.30;101933.19;5140623;27;20210;-66
2022/03/01 03:25:03;;;;;;;26.20;12.90;;;;;;;4.54;53.62;101935.84;5135189;27;20242;-66
2022/03/01 03:27:31;;;;;;;22.40;11.60;;;;;;;3.87;55.42;101928.47;5137714;27;20308;-65
2022/03/01 03:30:00;;;;;;;22.10;12.47;;;;;;;3.88;56.22;101929.34;5140496;27;20372;-65
2022/03/01 03:32:37;;;;;;;22.30;11.63;;;;;;;3.72;55.83;101918.69;5126834;27;20217;-65
2022/03/01 03:35:08;;;;;;;23.07;12.00;;;;;;;3.81;55.70;101920.03;5133418;27;20229;-66
2022/03/01 03:37:37;;;;;;;23.20;12.00;;;;;;;3.48;56.53;101925.03;5137021;27;20214;-67
2022/03/01 03:40:06;;;;;;;22.17;11.73;;;;;;;4.14;54.93;101921.97;5135688;27;20221;-67
2022/03/01 03:42:35;;;;;;;20.53;11.30;;;;;;;4.26;54.23;101927.56;5134985;27;20230;-66
2022/03/01 03:45:12;;;;;;;21.07;11.07;;;;;;;4.20;54.77;101922.63;5134864;27;21239;-67
2022/03/01 03:47:55;;;;;;;;;;;;;;;;;;;;;
2022/03/01 03:50:24;;;;;;;25.50;11.23;;;;;;;4.37;53.80;101927.91;5139211;27;20220;-66
2022/03/01 03:52:54;;;;;;;20.33;10.40;;;;;;;4.41;53.69;101927.69;5133778;27;20213;-65
2022/03/01 03:55:22;;;;;;;21.47;10.63;;;;;;;4.41;53.53;101921.59;5134961;27;20289;-65
2022/03/01 03:57:50;;;;;;;20.37;10.17;;;;;;;4.34;54.18;101917.56;5139540;27;20297;-64
2022/03/01 04:00:19;;;;;;;24.77;11.73;;;;;;;4.30;53.97;101916.00;5134166;27;20231;-65
2022/03/01 04:02:53;;;;;;;20.00;10.37;;;;;;;4.60;52.58;101914.53;5138195;27;20641;-64
2022/03/01 04:05:21;;;;;;;21.67;10.73;;;;;;;4.64;52.51;101915.22;5133696;27;20213;-65
2022/03/01 04:07:50;;;;;;;18.60;9.60;;;;;;;4.75;51.83;101915.56;5137902;27;20640;-64
2022/03/01 04:10:17;;;;;;;20.80;10.00;;;;;;;4.56;52.17;101915.63;5140521;27;20197;-65
2022/03/01 04:12:45;;;;;;;18.90;9.27;;;;;;;4.63;51.97;101918.78;5137099;27;20224;-65
2022/03/01 04:15:13;;;;;;;24.10;11.27;;;;;;;4.53;52.99;101915.75;5135555;27;20205;-65
2022/03/01 04:17:42;;;;;;;22.87;11.27;;;;;;;4.50;52.87;101918.50;5141091;27;20246;-63
2022/03/01 04:20:14;;;;;;;26.90;11.60;;;;;;;4.43;52.93;101919.75;5135493;27;20234;-63
2022/03/01 04:22:42;;;;;;;23.17;10.43;;;;;;;4.61;52.38;101915.38;5132758;27;20674;-63
2022/03/01 04:25:10;;;;;;;19.20;9.97;;;;;;;4.53;51.82;101913.97;5139357;27;20235;-68
2022/03/01 04:27:38;;;;;;;22.63;10.07;;;;;;;4.64;52.51;101921.34;5139399;27;20210;-66
2022/03/01 04:30:07;;;;;;;23.47;9.70;;;;;;;4.34;52.45;101917.56;5137837;27;20290;-67
2022/03/01 04:32:35;;;;;;;16.83;9.10;;;;;;;4.37;51.45;101923.53;5138727;27;20303;-68
2022/03/01 04:35:09;;;;;;;20.17;9.47;;;;;;;4.55;51.04;101913.91;5134758;27;20245;-67
2022/03/01 04:37:37;;;;;;;18.87;9.50;;;;;;;4.24;51.10;101916.28;5137558;27;20230;-67
2022/03/01 04:40:20;;;;;;;21.90;9.37;;;;;;;4.40;50.87;101927.75;5137563;27;20279;-67
2022/03/01 04:42:49;;;;;;;17.73;9.37;;;;;;;3.81;51.93;101917.44;5140856;27;20255;-65
2022/03/01 04:45:17;;;;;;;18.47;9.57;;;;;;;3.74;53.31;101911.59;5133973;27;20306;-65
2022/03/01 04:47:45;;;;;;;20.80;10.20;;;;;;;4.18;52.02;101919.22;5133007;27;20219;-65
2022/03/01 04:50:14;;;;;;;18.70;9.70;;;;;;;4.34;51.57;101912.31;5138921;27;20679;-65
2022/03/01 04:52:43;;;;;;;19.07;9.27;;;;;;;3.93;52.30;101915.09;5138250;27;20285;-64
2022/03/01 04:55:12;;;;;;;19.67;10.10;;;;;;;4.09;52.41;101912.59;5136583;27;20256;-64
2022/03/01 04:57:40;;;;;;;20.13;10.43;;;;;;;4.40;51.41;101917.25;5138535;27;20298;-64
2022/03/01 05:00:11;;;;;;;18.30;9.47;;;;;;;4.19;51.55;101907.78;5138581;27;20305;-64
2022/03/01 05:02:54;;;;;;;18.13;9.37;;;;;;;3.84;52.14;101912.91;5138097;27;20693;-65
2022/03/01 05:05:24;;;;;;;19.80;10.17;;;;;;;3.58;52.89;101913.22;5134530;27;20284;-65
2022/03/01 05:07:51;;;;;;;25.50;11.67;;;;;;;3.80;53.05;101911.31;5139165;27;20260;-65
2022/03/01 05:10:37;;;;;;;21.97;10.10;;;;;;;4.02;52.14;101914.69;5126756;27;20396;-65
2022/03/01 05:13:22;;;;;;;22.20;10.27;;;;;;;4.10;51.70;101920.41;5140403;27;20212;-65
2022/03/01 05:15:50;;;;;;;21.83;10.10;;;;;;;3.98;51.83;101926.22;5138542;27;20214;-65
2022/03/01 05:18:18;;;;;;;21.03;10.43;;;;;;;3.99;52.42;101925.31;5135762;27;20234;-65
2022/03/01 05:21:19;;;;;;;23.07;10.53;;;;;;;4.04;52.11;101928.59;5141543;27;20261;-65
2022/03/01 05:23:50;;;;;;;21.00;10.40;;;;;;;4.16;51.99;101927.16;5130743;27;20257;-65
2022/03/01 05:26:18;;;;;;;19.33;9.33;;;;;;;4.07;51.74;101931.06;5135216;27;20210;-65
2022/03/01 05:28:46;;;;;;;18.40;9.60;;;;;;;3.90;52.73;101933.59;5136841;27;20224;-65
2022/03/01 05:31:14;;;;;;;20.37;10.30;;;;;;;3.21;54.11;101932.31;5134610;27;20209;-65
2022/03/01 05:33:49;;;;;;;19.93;10.07;;;;;;;3.66;53.32;101935.56;5136043;27;20223;-66
2022/03/01 05:36:19;;;;;;;18.50;10.30;;;;;;;3.75;53.27;101943.03;5137414;27;20213;-66
2022/03/01 05:38:55;;;;;;;19.23;9.70;;;;;;;3.31;54.38;101939.75;5133144;27;20215;-66
2022/03/01 05:41:24;;;;;;;22.37;10.37;;;;;;;3.66;53.57;101946.06;5135533;27;20221;-67
2022/03/01 05:43:51;;;;;;;19.43;9.53;;;;;;;3.70;53.49;101946.75;5135471;27;20325;-67
2022/03/01 05:46:19;;;;;;;24.83;10.00;;;;;;;3.69;53.39;101945.91;5135048;27;20474;-64
2022/03/01 05:48:47;;;;;;;25.63;11.67;;;;;;;3.38;53.99;101951.66;5135353;27;20205;-64
2022/03/01 05:51:16;;;;;;;21.90;10.63;;;;;;;3.51;54.07;101948.53;5135926;27;20570;-64
2022/03/01 05:53:46;;;;;;;18.33;10.23;;;;;;;3.96;52.83;101959.56;5136108;27;20668;-64
2022/03/01 05:56:14;;;;;;;20.87;10.10;;;;;;;3.42;54.44;101954.16;5135076;27;20231;-66
2022/03/01 05:58:42;;;;;;;21.63;9.53;;;;;;;3.70;53.67;101952.00;5135718;27;20292;-68
2022/03/01 06:01:10;;;;;;;20.90;10.57;;;;;;;3.73;53.70;101957.97;5139454;27;20241;-68
2022/03/01 06:03:38;;;;;;;18.03;10.23;;;;;;;3.75;53.37;101958.78;5137553;27;20215;-68
2022/03/01 06:06:05;;;;;;;18.57;9.90;;;;;;;3.97;52.29;101955.16;5135829;27;20210;-68
2022/03/01 06:08:33;;;;;;;19.33;9.93;;;;;;;3.97;52.27;101949.91;5136024;27;20349;-68
2022/03/01 06:11:02;;;;;;;20.07;9.87;;;;;;;3.92;52.35;101947.53;5131604;27;20263;-67
2022/03/01 06:13:30;;;;;;;20.47;9.90;;;;;;;3.90;52.74;101954.59;5133472;27;20217;-67
2022/03/01 06:16:00;;;;;;;24.23;10.43;;;;;;;3.93;52.14;101954.47;5135091;27;20560;-66
2022/03/01 06:18:28;;;;;;;18.43;10.37;;;;;;;3.94;52.03;101950.94;5135164;27;20236;-67
2022/03/01 06:20:56;;;;;;;23.83;10.20;;;;;;;3.85;52.15;101945.25;5137080;27;20201;-66
2022/03/01 06:23:24;;;;;;;24.27;11.70;;;;;;;3.83;52.29;101947.94;5137661;27;20213;-66
2022/03/01 06:25:52;;;;;;;24.40;11.63;;;;;;;3.93;51.75;101949.22;5137858;27;20217;-67
2022/03/01 06:28:21;;;;;;;22.80;11.53;;;;;;;4.00;51.78;101955.88;5138250;27;20217;-65
2022/03/01 06:30:48;;;;;;;21.37;10.53;;;;;;;3.99;51.59;101948.94;5135936;27;20597;-67
2022/03/01 06:33:18;;;;;;;17.23;9.07;;;;;;;3.23;53.37;101957.56;5135942;27;20308;-65
2022/03/01 06:35:47;;;;;;;20.30;10.03;;;;;;;3.66;52.64;101955.72;5141116;27;20241;-66
2022/03/01 06:38:15;;;;;;;20.47;10.40;;;;;;;3.64;52.38;101947.03;5142171;27;20256;-65
2022/03/01 06:40:56;;;;;;;20.23;9.87;;;;;;;3.50;52.78;101949.44;5142195;27;20214;-65
2022/03/01 06:43:26;;;;;;;19.10;9.60;;;;;;;3.03;54.12;101966.25;5143251;27;20292;-64
2022/03/01 06:45:54;;;;;;;20.93;9.70;;;;;;;3.54;52.88;101972.81;5144411;27;20204;-65
2022/03/01 06:48:22;;;;;;;21.70;11.20;;;;;;;3.56;52.88;101971.00;5142057;27;20601;-65
2022/03/01 06:50:50;;;;;;;21.30;10.20;;;;;;;3.79;52.14;101972.59;5136715;27;20232;-64
2022/03/01 06:53:18;;;;;;;25.80;10.60;;;;;;;3.87;52.03;101970.47;5138775;27;20209;-64
2022/03/01 06:55:54;;;;;;;21.67;10.77;;;;;;;3.99;51.52;101975.19;5142415;27;20213;-66
2022/03/01 06:58:23;;;;;;;20.17;10.00;;;;;;;3.88;51.87;101974.81;5133229;27;20198;-66
2022/03/01 07:01:03;;;;;;;22.43;9.37;;;;;;;3.92;51.58;101971.13;5142118;27;20842;-66
2022/03/01 07:03:31;;;;;;;19.53;9.63;;;;;;;4.06;51.19;101986.25;5144002;27;20207;-65
2022/03/01 07:05:59;;;;;;;17.87;9.37;;;;;;;4.16;50.70;101984.91;5138141;27;20221;-64
2022/03/01 07:08:26;;;;;;;18.90;9.57;;;;;;;4.05;51.32;101981.91;5139839;27;20240;-64
2022/03/01 07:10:55;;;;;;;17.93;9.30;;;;;;;4.09;50.94;101992.22;5142316;27;20303;-60
2022/03/01 07:13:25;;;;;;;17.70;9.47;;;;;;;4.15;51.32;101996.34;5136254;27;20221;-60
2022/03/01 07:15:52;;;;;;;22.47;9.97;;;;;;;4.16;51.53;101992.78;5137719;27;20619;-60
2022/03/01 07:18:22;;;;;;;23.27;10.73;;;;;;;4.15;51.44;101993.72;5144824;27;20583;-63
2022/03/01 07:20:49;;;;;;;20.37;10.40;;;;;;;4.20;51.05;101998.75;5144043;27;20292;-64
2022/03/01 07:23:17;;;;;;;20.73;9.97;;;;;;;4.10;51.61;101993.94;5142005;27;20768;-64
2022/03/01 07:25:45;;;;;;;20.40;10.33;;;;;;;4.25;50.88;102002.03;5143136;27;20202;-64
2022/03/01 07:28:15;;;;;;;22.70;9.50;;;;;;;4.22;51.28;101989.06;5142389;27;20202;-63
2022/03/01 07:30:44;;;;;;;21.73;10.10;;;;;;;4.25;51.34;101994.13;5142893;27;20216;-64
2022/03/01 07:33:12;;;;;;;23.73;10.97;;;;;;;4.28;51.42;102001.88;5139245;27;20334;-64
2022/03/01 07:35:41;;;;;;;18.97;9.63;;;;;;;4.24;51.06;102003.78;5141534;27;20223;-64
2022/03/01 07:38:10;;;;;;;19.67;9.83;;;;;;;4.39;50.77;101994.38;5142166;27;20229;-65
2022/03/01 07:40:46;;;;;;;18.67;9.67;;;;;;;4.39;50.32;101997.00;5144163;27;20203;-64
2022/03/01 07:43:13;;;;;;;20.03;10.17;;;;;;;4.35;50.95;102004.16;5139932;27;20234;-64
2022/03/01 07:45:41;;;;;;;22.30;11.03;;;;;;;4.23;51.21;101999.47;5145440;27;20747;-65
2022/03/01 07:48:10;;;;;;;27.17;15.90;;;;;;;4.43;50.46;101995.91;5137480;27;20297;-64
2022/03/01 07:50:38;;;;;;;24.37;12.13;;;;;;;4.62;50.11;102002.00;5140632;27;20644;-64
2022/03/01 07:53:08;;;;;;;22.07;10.90;;;;;;;4.69;49.91;102000.78;5142946;27;20568;-64
2022/03/01 07:55:35;;;;;;;22.53;10.87;;;;;;;4.75;49.74;102004.91;5141827;27;20218;-64
2022/03/01 07:58:03;;;;;;;24.33;10.37;;;;;;;4.76;49.56;101999.56;5139414;27;20242;-64
2022/03/01 08:00:33;;;;;;;22.50;11.03;;;;;;;4.78;50.02;102012.63;5139345;27;20637;-64
2022/03/01 08:03:01;;;;;;;22.13;10.47;;;;;;;4.91;49.82;102004.09;5128564;27;20318;-64
2022/03/01 08:05:29;;;;;;;22.87;9.77;;;;;;;4.96;49.66;102003.00;5135683;27;20544;-64
2022/03/01 08:07:58;;;;;;;20.63;10.73;;;;;;;5.07;49.64;101998.09;5123022;27;20584;-64
2022/03/01 08:10:28;;;;;;;19.57;10.60;;;;;;;5.06;49.83;101996.38;5109283;27;20244;-64
2022/03/01 08:13:01;;;;;;;20.63;9.03;;;;;;;5.08;49.50;101999.78;5112024;27;20208;-64
2022/03/01 08:15:31;;;;;;;22.10;10.83;;;;;;;5.81;48.59;101990.75;5110906;27;20477;-64
2022/03/01 08:18:01;;;;;;;24.53;10.90;;;;;;;6.31;46.54;102002.13;5110749;27;20308;-64
2022/03/01 08:20:30;;;;;;;18.13;10.33;;;;;;;5.55;48.76;102010.53;5110814;27;20637;-64
2022/03/01 08:22:59;;;;;;;21.23;10.67;;;;;;;5.44;49.08;102002.34;5128936;27;20295;-64
2022/03/01 08:25:28;;;;;;;20.77;10.30;;;;;;;5.75;48.45;101993.72;5129827;27;20485;-65
2022/03/01 08:27:58;;;;;;;24.70;10.93;;;;;;;6.04;48.14;101995.72;5134993;27;20293;-63
2022/03/01 08:30:26;;;;;;;21.33;11.37;;;;;;;8.27;43.73;101992.28;5117346;27;20686;-64
2022/03/01 08:32:54;;;;;;;23.80;11.33;;;;;;;8.78;41.37;102000.53;5119530;27;20214;-64
2022/03/01 08:35:23;;;;;;;23.87;11.70;;;;;;;7.52;43.95;102004.81;5131438;27;20207;-64
2022/03/01 08:37:51;;;;;;;20.53;11.13;;;;;;;6.89;45.03;102009.41;5120230;27;20240;-64
2022/03/01 08:40:21;;;;;;;18.60;10.27;;;;;;;6.35;46.82;102013.31;5117473;27;20213;-63
2022/03/01 08:42:50;;;;;;;21.30;10.70;;;;;;;6.58;46.58;102009.44;5114569;27;20228;-64
2022/03/01 08:45:18;;;;;;;22.80;10.70;;;;;;;6.38;46.64;102008.75;5125771;27;20238;-63
2022/03/01 08:47:46;;;;;;;22.97;11.07;;;;;;;6.68;46.56;102022.03;5117935;27;20662;-65
2022/03/01 08:50:14;;;;;;;18.83;10.87;;;;;;;9.95;40.67;102009.31;5119486;27;20733;-64
2022/03/01 08:53:06;;;;;;;23.03;10.87;;;;;;;15.75;30.66;101999.75;5120349;27;20220;-65
2022/03/01 08:55:39;;;;;;;21.47;11.07;;;;;;;15.62;30.06;101991.19;5121723;27;20208;-65
2022/03/01 08:58:08;;;;;;;19.23;11.20;;;;;;;13.84;32.56;102000.13;5122277;27;20257;-64
2022/03/01 09:00:35;;;;;;;18.40;10.90;;;;;;;12.42;34.32;102008.44;5118143;27;20252;-64
2022/03/01 09:03:04;;;;;;;20.07;12.50;;;;;;;13.21;33.39;102010.91;5118631;27;20236;-65
2022/03/01 09:05:46;;;;;;;24.20;12.40;;;;;;;18.84;26.34;101998.75;5112760;27;20278;-63
2022/03/01 09:08:14;;;;;;;23.10;11.87;;;;;;;18.23;26.43;101993.66;5128058;27;20319;-64
2022/03/01 09:10:41;;;;;;;22.43;12.67;;;;;;;18.10;26.27;101996.78;5150543;27;20221;-64
2022/03/01 09:13:11;;;;;;;17.93;12.00;;;;;;;17.87;26.48;101991.13;5147651;27;20204;-64
2022/03/01 09:15:39;;;;;;;20.77;13.10;;;;;;;19.33;25.01;101988.88;5142271;27;20296;-63
2022/03/01 09:18:07;;;;;;;18.93;12.37;;;;;;;21.06;23.16;101980.84;5140938;27;20221;-62
2022/03/01 09:20:38;;;;;;;20.27;11.90;;;;;;;23.54;20.28;101964.56;5149103;27;20677;-62
2022/03/01 09:23:08;;;;;;;19.23;10.77;;;;;;;21.06;20.38;101965.50;5141236;27;20270;-61
2022/03/01 09:25:41;;;;;;;14.83;10.67;;;;;;;16.37;25.21;101961.59;5140775;27;20220;-62
2022/03/01 09:28:09;;;;;;;15.23;10.95;;;;;;;14.08;28.26;101959.78;5152391;27;20294;-63
2022/03/01 09:30:38;;;;;;;18.58;11.45;;;;;;;13.59;30.05;101957.91;5140032;27;20556;-63
2022/03/01 09:33:06;;;;;;;17.85;11.60;;;;;;;14.22;28.56;101963.94;5159857;27;20563;-63
2022/03/01 09:35:34;;;;;;;18.45;11.10;;;;;;;20.16;21.77;101956.25;5142062;27;20214;-63
2022/03/01 09:38:02;;;;;;;15.65;11.45;;;;;;;22.13;19.65;101958.91;5148831;27;20221;-64
2022/03/01 09:40:33;;;;;;;17.30;11.40;;;;;;;21.01;20.20;101967.91;5148136;27;20211;-64
2022/03/01 09:43:04;;;;;;;13.90;10.35;;;;;;;22.97;18.90;101959.25;5142504;27;20232;-64
2022/03/01 09:45:33;;;;;;;17.15;11.52;;;;;;;22.41;20.19;101950.94;5152143;27;20244;-63
2022/03/01 09:48:03;;;;;;;15.43;11.30;;;;;;;20.46;21.63;101951.94;5145729;27;20280;-63
2022/03/01 09:50:31;;;;;;;15.07;11.18;;;;;;;18.07;23.02;101948.78;5137300;27;20208;-63
2022/03/01 09:53:02;;;;;;;15.20;11.10;;;;;;;17.35;23.78;101950.00;5158688;27;20243;-62
2022/03/01 09:55:40;;;;;;;14.80;11.68;;;;;;;14.64;26.46;101960.13;5144496;27;20586;-63
2022/03/01 09:58:17;;;;;;;16.17;10.85;;;;;;;13.21;28.91;101953.16;5145860;27;20209;-62
2022/03/01 10:00:46;;;;;;;15.73;11.45;;;;;;;14.11;28.06;101956.03;5149887;27;20240;-62
2022/03/01 10:03:17;;;;;;;19.13;11.50;;;;;;;12.68;29.48;101965.56;5151415;27;20238;-62
2022/03/01 10:05:45;;;;;;;13.83;10.53;;;;;;;13.44;28.59;101948.56;5146801;27;20219;-62
2022/03/01 10:08:15;;;;;;;18.50;11.97;;;;;;;16.04;26.85;101949.66;5153847;27;20232;-62
2022/03/01 10:10:44;;;;;;;18.80;12.80;;;;;;;17.03;25.92;101944.41;5145407;27;20693;-62
2022/03/01 10:13:16;;;;;;;16.87;12.03;;;;;;;19.38;23.64;101942.63;5153226;27;20642;-63
2022/03/01 10:15:50;;;;;;;17.50;11.23;;;;;;;18.27;23.86;101930.56;5144065;27;20294;-64
2022/03/01 10:18:31;;;;;;;16.77;11.13;;;;;;;17.25;25.46;101941.22;5141959;27;20465;-64
2022/03/01 10:21:03;;;;;;;23.30;13.60;;;;;;;16.09;26.23;101944.72;5142649;27;20212;-65
2022/03/01 10:23:31;;;;;;;16.13;12.07;;;;;;;14.63;27.95;101945.09;5136120;27;20233;-65
2022/03/01 10:25:58;;;;;;;18.80;12.02;;;;;;;14.55;28.17;101944.94;5141793;27;20242;-65
2022/03/01 10:28:34;;;;;;;14.50;10.90;;;;;;;14.65;27.28;101943.13;5149676;27;20212;-65
2022/03/01 10:31:10;;;;;;;14.33;10.87;;;;;;;15.62;26.97;101945.75;5141943;27;20213;-64
2022/03/01 10:33:40;;;;;;;15.80;10.57;;;;;;;16.04;25.71;101955.00;5141143;27;20227;-64
2022/03/01 10:36:08;;;;;;;14.77;10.40;;;;;;;16.81;25.65;101959.94;5139285;27;20603;-65
2022/03/01 10:38:39;;;;;;;15.63;11.13;;;;;;;17.68;22.66;101943.03;5142397;27;20775;-64
2022/03/01 10:41:09;;;;;;;16.83;10.73;;;;;;;19.22;22.49;101945.34;5139303;27;20718;-65
2022/03/01 10:43:36;;;;;;;20.37;11.07;;;;;;;21.24;20.36;101946.31;5147446;27;20651;-65
2022/03/01 10:46:08;;;;;;;16.13;11.43;;;;;;;24.67;18.09;101934.25;5138244;27;20233;-65
2022/03/01 10:48:37;;;;;;;15.63;10.23;;;;;;;21.66;19.74;101929.53;5147077;27;20213;-65
2022/03/01 10:51:08;;;;;;;13.48;10.70;;;;;;;21.52;20.81;101933.06;5145939;27;20206;-65
2022/03/01 10:53:48;;;;;;;14.88;10.85;;;;;;;19.96;22.21;101931.59;5141284;27;20280;-65
2022/03/01 10:56:17;;;;;;;16.90;10.95;;;;;;;17.28;24.78;101924.81;5140558;27;20201;-66
2022/03/01 10:58:48;;;;;;;15.30;10.45;;;;;;;17.00;23.22;101925.94;5153978;27;20270;-65
2022/03/01 11:01:16;;;;;;;13.45;10.80;;;;;;;16.59;24.55;101928.22;5145659;27;20312;-65
2022/03/01 11:03:48;;;;;;;16.88;11.50;;;;;;;15.41;25.25;101920.00;5142201;27;20227;-65
2022/03/01 11:06:17;;;;;;;14.90;11.77;;;;;;;15.10;26.34;101923.03;5147969;27;20216;-65
2022/03/01 11:08:46;;;;;;;16.92;11.77;;;;;;;14.22;28.43;101924.75;5117578;27;20225;-65
2022/03/01 11:11:15;;;;;;;15.48;11.00;;;;;;;14.58;28.15;101911.78;5121299;27;20531;-65
2022/03/01 11:13:45;;;;;;;15.30;10.60;;;;;;;13.05;29.35;101921.59;5122296;27;20662;-65
2022/03/01 11:16:52;;;;;;;17.10;11.90;;;;;;;12.59;30.44;101929.06;5126912;27;20586;-65
2022/03/01 11:19:41;;;;;;;19.97;11.87;;;;;;;13.92;30.13;101920.28;5062031;28;20215;-65
2022/03/01 11:22:21;;;;;;;18.60;10.77;;;;;;;13.32;30.24;101917.63;5115494;27;20298;-65
2022/03/01 11:24:49;;;;;;;23.43;12.37;;;;;;;12.24;31.71;101922.13;5115640;27;20316;-64
2022/03/01 11:27:21;;;;;;;15.50;10.70;;;;;;;12.58;30.69;101924.69;5119261;27;20297;-63
2022/03/01 11:29:50;;;;;;;18.70;11.63;;;;;;;14.43;29.50;101927.34;5118724;27;20326;-64
2022/03/01 11:32:22;;;;;;;25.23;10.93;;;;;;;13.87;28.91;101908.38;5131953;27;20304;-64